Time;durP1;ratioP1;P1;durP2;ratioP2;P2;SDS_P1;SDS_P2;PMS_P1;PMS_P2;Temp;Humidity;BMP_temperature;BMP_pressure;BME280_temperature;BME280_humidity;BME280_pressure;Samples;Min_cycle;Max_cycle;Signal;HPM_P1;HPM_P2
2022/01/04 00:00:40;;;;;;;;;;;;;;;6.61;100.00;100012.09;5599606;31;33286;-82
2022/01/04 00:03:43;;;;;;;;;;;;;;;6.66;100.00;100003.84;5599362;31;33942;-82
2022/01/04 00:06:47;;;;;;;;;;;;;;;6.65;100.00;99999.53;5604608;31;34842;-82
2022/01/04 00:09:54;;;;;;;;;;;;;;;6.66;100.00;100003.84;5599456;31;33407;-82
2022/01/04 00:16:18;;;;;;;;;;;;;;;6.83;100.00;100015.62;5597883;31;34043;-82
2022/01/04 00:19:20;;;;;;;;;;;;;;;6.85;100.00;100018.12;5596815;31;33785;-82
2022/01/04 00:22:23;;;;;;;;;;;;;;;6.76;100.00;100020.53;5596999;31;33855;-82
2022/01/04 00:25:25;;;;;;;;;;;;;;;6.72;100.00;100024.38;5596604;31;33853;-82
2022/01/04 00:28:32;;;;;;;;;;;;;;;6.66;100.00;100019.59;5596656;31;33216;-82
2022/01/04 00:31:34;;;;;;;;;;;;;;;6.55;100.00;100019.63;5596848;31;33792;-82
2022/01/04 00:34:41;;;;;;;;;;;;;;;6.51;100.00;100015.56;5597236;31;33800;-82
2022/01/04 00:37:43;;;;;;;;;;;;;;;6.47;100.00;100013.16;5597509;31;34187;-82
2022/01/04 00:40:46;;;;;;;;;;;;;;;6.48;100.00;100001.69;5597241;31;33775;-82
2022/01/04 00:43:52;;;;;;;;;;;;;;;6.45;100.00;100007.22;5596371;31;33861;-82
2022/01/04 00:46:54;;;;;;;;;;;;;;;6.45;100.00;100001.97;5597032;31;33734;-82
2022/01/04 00:49:57;;;;;;;;;;;;;;;6.46;100.00;99992.28;5596510;31;33941;-82
2022/01/04 00:53:05;;;;;;;;;;;;;;;6.43;100.00;99993.37;5597058;31;33899;-82
2022/01/04 00:56:08;;;;;;;;;;;;;;;6.54;100.00;99996.94;5596597;31;33835;-82
2022/01/04 00:59:11;;;;;;;;;;;;;;;6.52;100.00;99991.81;5596063;31;34552;-82
2022/01/04 01:02:16;;;;;;;;;;;;;;;6.48;100.00;99993.81;5597011;31;34171;-82
2022/01/04 01:05:19;;;;;;;;;;;;;;;6.48;100.00;100001.69;5598076;31;33667;-82
2022/01/04 01:08:22;;;;;;;;;;;;;;;6.59;100.00;99997.38;5596526;31;33544;-82
2022/01/04 01:11:24;;;;;;;;;;;;;;;6.63;100.00;100001.44;5596484;31;33854;-82
2022/01/04 01:14:27;;;;;;;;;;;;;;;6.64;100.00;100003.13;5596654;31;33793;-82
2022/01/04 01:17:32;;;;;;;;;;;;;;;6.56;100.00;99985.31;5572169;31;837435;-82
2022/01/04 01:20:36;;;;;;;;;;;;;;;6.56;100.00;99987.13;5601378;31;34075;-82
2022/01/04 01:23:39;;;;;;;;;;;;;;;6.52;100.00;99980.44;5599882;31;34578;-82
2022/01/04 01:26:42;;;;;;;;;;;;;;;6.56;100.00;99971.37;5599306;31;33193;-82
2022/01/04 01:29:52;;;;;;;;;;;;;;;6.52;100.00;99969.94;5600033;31;33816;-82
2022/01/04 01:32:57;;;;;;;;;;;;;;;6.47;100.00;99968.50;5598082;31;34119;-82
2022/01/04 01:35:59;;;;;;;;;;;;;;;6.43;100.00;99959.19;5596539;31;33967;-82
2022/01/04 01:39:02;;;;;;;;;;;;;;;6.38;100.00;99947.37;5597011;31;34509;-82
2022/01/04 01:42:05;;;;;;;;;;;;;;;6.30;100.00;99940.97;5597563;31;34586;-82
2022/01/04 01:45:11;;;;;;;;;;;;;;;6.25;100.00;99947.53;5597569;31;33994;-83
2022/01/04 01:48:17;;;;;;;;;;;;;;;6.25;100.00;99937.03;5597041;31;33816;-83
2022/01/04 01:51:23;;;;;;;;;;;;;;;6.26;100.00;99939.53;5596677;31;34138;-82
2022/01/04 01:54:26;;;;;;;;;;;;;;;6.28;100.00;99918.38;5596880;31;34989;-82
2022/01/04 01:57:31;;;;;;;;;;;;;;;6.24;100.00;99914.34;5597888;31;33823;-82
2022/01/04 02:00:34;;;;;;;;;;;;;;;6.24;100.00;99907.28;5596876;31;33642;-83
2022/01/04 02:03:37;;;;;;;;;;;;;;;6.32;100.00;99915.38;5596471;31;33886;-83
2022/01/04 02:06:41;;;;;;;;;;;;;;;6.17;100.00;99906.94;5598104;31;34021;-82
2022/01/04 02:09:52;;;;;;;;;;;;;;;6.13;100.00;99905.53;5597550;31;33103;-82
2022/01/04 02:12:55;;;;;;;;;;;;;;;6.04;100.00;99898.38;5597187;31;33484;-82
2022/01/04 02:15:57;;;;;;;;;;;;;;;5.87;100.00;99891.78;5582158;31;35165;-82
2022/01/04 02:19:01;;;;;;;;;;;;;;;5.91;100.00;99874.03;5596737;31;33696;-82
2022/01/04 02:22:03;;;;;;;;;;;;;;;5.81;100.00;99856.34;5596020;31;33434;-82
2022/01/04 02:25:06;;;;;;;;;;;;;;;5.69;100.00;99863.41;5596189;31;33637;-82
2022/01/04 02:28:10;;;;;;;;;;;;;;;5.77;100.00;99849.69;5595956;31;34429;-82
2022/01/04 02:31:13;;;;;;;;;;;;;;;5.83;100.00;99854.44;5596232;31;33925;-82
2022/01/04 02:34:15;;;;;;;;;;;;;;;5.79;100.00;99850.41;5596436;31;33920;-82
2022/01/04 02:37:22;;;;;;;;;;;;;;;5.82;100.00;99847.53;5596485;31;33985;-82
2022/01/04 02:40:27;;;;;;;;;;;;;;;5.73;100.00;99840.37;5597110;31;33286;-82
2022/01/04 02:43:30;;;;;;;;;;;;;;;5.68;100.00;99845.19;5598647;31;33848;-82
2022/01/04 02:46:32;;;;;;;;;;;;;;;5.66;100.00;99860.22;5596147;31;34062;-82
2022/01/04 02:49:35;;;;;;;;;;;;;;;5.68;100.00;99863.56;5596108;31;33758;-84
2022/01/04 02:52:38;;;;;;;;;;;;;;;5.66;100.00;99857.59;5597073;31;33658;-83
2022/01/04 02:55:41;;;;;;;;;;;;;;;5.69;100.00;99852.06;5596263;31;33576;-83
2022/01/04 02:58:44;;;;;;;;;;;;;;;5.75;100.00;99846.34;5596418;31;34170;-83
2022/01/04 03:01:46;;;;;;;;;;;;;;;5.76;100.00;99842.78;5600084;31;33981;-82
2022/01/04 03:04:50;;;;;;;;;;;;;;;5.79;100.00;99842.53;5605399;31;33987;-82
2022/01/04 03:07:53;;;;;;;;;;;;;;;5.77;100.00;99833.94;5590764;31;33857;-82
2022/01/04 03:10:58;;;;;;;;;;;;;;;5.80;100.00;99828.44;5597637;31;34167;-82
2022/01/04 03:14:01;;;;;;;;;;;;;;;5.93;100.00;99832.72;5596110;31;33486;-82
2022/01/04 03:17:04;;;;;;;;;;;;;;;5.88;100.00;99826.06;5595836;31;33494;-82
2022/01/04 03:20:08;;;;;;;;;;;;;;;5.90;100.00;99818.03;5596194;31;34713;-82
2022/01/04 03:23:10;;;;;;;;;;;;;;;5.88;100.00;99807.69;5597388;31;33600;-82
2022/01/04 03:26:13;;;;;;;;;;;;;;;5.84;100.00;99798.38;5598764;31;33768;-82
2022/01/04 03:29:18;;;;;;;;;;;;;;;5.87;100.00;99786.78;5598488;31;33575;-83
2022/01/04 03:32:21;;;;;;;;;;;;;;;5.75;100.00;99780.72;5598185;31;33813;-82
2022/01/04 03:35:23;;;;;;;;;;;;;;;5.70;100.00;99780.25;5597360;31;33798;-82
2022/01/04 03:38:29;;;;;;;;;;;;;;;5.59;100.00;99782.91;5597913;31;33668;-83
2022/01/04 03:41:39;;;;;;;;;;;;;;;5.54;100.00;99765.75;5597991;31;36153;-84
2022/01/04 03:44:42;;;;;;;;;;;;;;;5.51;100.00;99771.22;5597501;31;34342;-82
2022/01/04 03:47:44;;;;;;;;;;;;;;;5.46;100.00;99765.50;5597670;31;34640;-82
2022/01/04 03:50:49;;;;;;;;;;;;;;;5.43;100.00;99755.28;5598748;31;34531;-82
2022/01/04 03:53:54;;;;;;;;;;;;;;;5.39;100.00;99752.06;5598612;31;34411;-84
2022/01/04 03:56:57;;;;;;;;;;;;;;;5.32;100.00;99755.28;5600654;31;33926;-84
2022/01/04 04:00:03;;;;;;;;;;;;;;;5.23;100.00;99762.06;5597595;31;34429;-84
2022/01/04 04:03:13;;;;;;;;;;;;;;;5.14;100.00;99755.75;5597922;31;34315;-84
2022/01/04 04:06:16;;;;;;;;;;;;;;;5.10;100.00;99749.09;5597313;31;34038;-84
2022/01/04 04:09:18;;;;;;;;;;;;;;;5.07;100.00;99744.09;5597499;31;33929;-84
2022/01/04 04:12:30;;;;;;;;;;;;;;;5.10;100.00;99731.56;5596943;31;33692;-84
2022/01/04 04:15:33;;;;;;;;;;;;;;;5.14;100.00;99758.38;5597215;31;34075;-84
2022/01/04 04:18:35;;;;;;;;;;;;;;;5.21;100.00;99749.09;5597409;31;34630;-84
2022/01/04 04:21:37;;;;;;;;;;;;;;;5.19;100.00;99737.88;5596370;31;34583;-84
2022/01/04 04:24:41;;;;;;;;;;;;;;;5.11;100.00;99737.66;5597149;31;34472;-84
2022/01/04 04:27:43;;;;;;;;;;;;;;;5.10;100.00;99736.00;5597422;31;33994;-82
2022/01/04 04:30:46;;;;;;;;;;;;;;;5.11;100.00;99735.03;5597796;31;33711;-82
2022/01/04 04:33:49;;;;;;;;;;;;;;;5.18;100.00;99732.78;5596086;31;34423;-82
2022/01/04 04:36:52;;;;;;;;;;;;;;;5.12;100.00;99728.84;5597896;31;33569;-82
2022/01/04 04:39:54;;;;;;;;;;;;;;;5.10;100.00;99725.50;5597230;31;33745;-82
2022/01/04 04:42:57;;;;;;;;;;;;;;;5.07;100.00;99723.09;5597724;31;34132;-82
2022/01/04 04:46:00;;;;;;;;;;;;;;;5.16;100.00;99721.56;5598541;31;33843;-85
2022/01/04 04:49:05;;;;;;;;;;;;;;;5.10;100.00;99725.50;5599236;31;33856;-82
2022/01/04 04:52:07;;;;;;;;;;;;;;;5.13;100.00;99735.72;5597169;31;34382;-82
2022/01/04 04:55:14;;;;;;;;;;;;;;;5.16;100.00;99738.12;5596931;31;34118;-82
2022/01/04 04:58:17;;;;;;;;;;;;;;;5.18;100.00;99733.59;5597064;31;34062;-82
2022/01/04 05:01:22;;;;;;;;;;;;;;;5.22;100.00;99721.91;5596188;31;33658;-82
2022/01/04 05:04:25;;;;;;;;;;;;;;;5.19;100.00;99709.03;5596641;31;34108;-82
2022/01/04 05:07:28;;;;;;;;;;;;;;;5.17;100.00;99704.88;5596895;31;34429;-82
2022/01/04 05:10:31;;;;;;;;;;;;;;;5.12;100.00;99707.88;5597266;31;34526;-82
2022/01/04 05:13:36;;;;;;;;;;;;;;;5.11;100.00;99711.44;5596962;31;34428;-82
2022/01/04 05:16:39;;;;;;;;;;;;;;;5.07;100.00;99694.25;5596628;31;33685;-82
2022/01/04 05:19:41;;;;;;;;;;;;;;;4.99;100.00;99696.66;5597168;31;33935;-84
2022/01/04 05:22:44;;;;;;;;;;;;;;;4.99;100.00;99696.66;5596577;31;33978;-84
2022/01/04 05:25:49;;;;;;;;;;;;;;;4.98;100.00;99695.00;5596371;31;34371;-84
2022/01/04 05:28:54;;;;;;;;;;;;;;;4.79;100.00;99696.41;5596237;31;33962;-82
2022/01/04 05:31:57;;;;;;;;;;;;;;;4.66;100.00;99695.72;5596650;31;33265;-82
2022/01/04 05:34:59;;;;;;;;;;;;;;;4.56;100.00;99698.19;5596246;31;33711;-82
2022/01/04 05:38:03;;;;;;;;;;;;;;;4.52;100.00;99684.50;5596960;31;33928;-82
2022/01/04 05:41:05;;;;;;;;;;;;;;;4.54;100.00;99692.22;5596075;31;34666;-84
2022/01/04 05:44:08;;;;;;;;;;;;;;;4.50;100.00;99689.00;5595410;31;33791;-84
2022/01/04 05:47:10;;;;;;;;;;;;;;;4.42;100.00;99680.91;5595699;31;34322;-84
2022/01/04 05:50:13;;;;;;;;;;;;;;;4.36;100.00;99678.75;5595984;31;34124;-84
2022/01/04 05:53:16;;;;;;;;;;;;;;;4.37;100.00;99670.78;5597824;31;33881;-82
2022/01/04 05:56:18;;;;;;;;;;;;;;;4.28;100.00;99674.09;5596510;31;36443;-81
2022/01/04 05:59:21;;;;;;;;;;;;;;;4.20;100.00;99656.34;5596630;31;33857;-84
2022/01/04 06:02:24;;;;;;;;;;;;;;;4.19;100.00;99649.44;5599489;31;33742;-84
2022/01/04 06:05:27;;;;;;;;;;;;;;;4.17;100.00;99653.97;5597624;31;34813;-82
2022/01/04 06:08:34;;;;;;;;;;;;;;;4.16;100.00;99652.28;5595648;31;33417;-83
2022/01/04 06:11:56;;;;;;;;;;;;;;;4.15;100.00;99650.63;5594972;31;34362;-82
2022/01/04 06:15:05;;;;;;;;;;;;;;;4.05;100.00;99655.72;5595331;31;33617;-82
2022/01/04 06:18:13;;;;;;;;;;;;;;;4.04;100.00;99655.81;5595289;31;34729;-83
2022/01/04 06:21:17;;;;;;;;;;;;;;;3.97;100.00;99658.91;5595680;31;34031;-82
2022/01/04 06:24:20;;;;;;;;;;;;;;;3.93;100.00;99667.94;5597643;31;34772;-83
2022/01/04 06:27:26;;;;;;;;;;;;;;;3.90;100.00;99665.53;5596552;31;33892;-83
2022/01/04 06:30:29;;;;;;;;;;;;;;;3.87;100.00;99666.59;5597777;31;33731;-82
2022/01/04 06:33:37;;;;;;;;;;;;;;;3.76;100.00;99665.75;5594452;31;34570;-82
2022/01/04 06:36:40;;;;;;;;;;;;;;;3.70;100.00;99654.78;5594414;31;33960;-82
2022/01/04 06:39:42;;;;;;;;;;;;;;;3.72;100.00;99644.19;5596452;31;33343;-83
2022/01/04 06:42:45;;;;;;;;;;;;;;;3.70;100.00;99646.91;5594720;31;34061;-82
2022/01/04 06:45:48;;;;;;;;;;;;;;;3.54;100.00;99636.75;5595508;31;33352;-82
2022/01/04 06:48:51;;;;;;;;;;;;;;;3.42;100.00;99639.44;5595173;31;34596;-82
2022/01/04 06:51:53;;;;;;;;;;;;;;;3.39;100.00;99628.25;5595931;31;33306;-82
2022/01/04 06:54:56;;;;;;;;;;;;;;;3.25;100.00;99625.78;5581856;31;34529;-83
2022/01/04 06:58:01;;;;;;;;;;;;;;;3.19;100.00;99613.19;5593782;31;33626;-83
2022/01/04 07:01:04;;;;;;;;;;;;;;;3.19;100.00;99615.78;5594800;31;33946;-82
2022/01/04 07:04:07;;;;;;;;;;;;;;;3.31;100.00;99608.81;5595139;31;34960;-83
2022/01/04 07:07:16;;;;;;;;;;;;;;;3.32;100.00;99610.50;5596300;31;33968;-82
2022/01/04 07:10:18;;;;;;;;;;;;;;;3.33;100.00;99602.53;5595295;31;33844;-82
2022/01/04 07:13:23;;;;;;;;;;;;;;;3.52;100.00;99622.13;5595691;31;33890;-83
2022/01/04 07:16:25;;;;;;;;;;;;;;;3.75;100.00;99643.13;5594858;31;33880;-82
2022/01/04 07:19:30;;;;;;;;;;;;;;;4.08;100.00;99647.62;5597173;31;33840;-83
2022/01/04 07:22:33;;;;;;;;;;;;;;;4.29;100.00;99645.19;5596912;31;33638;-84
2022/01/04 07:25:36;;;;;;;;;;;;;;;4.48;100.00;99662.09;5600012;31;33877;-84
2022/01/04 07:28:40;;;;;;;;;;;;;;;4.63;100.00;99647.81;5599219;31;34826;-84
2022/01/04 07:31:45;;;;;;;;;;;;;;;4.72;100.00;99645.44;5597949;31;33896;-84
2022/01/04 07:34:47;;;;;;;;;;;;;;;4.83;100.00;99636.75;5598588;31;33788;-83
2022/01/04 07:37:52;;;;;;;;;;;;;;;5.08;100.00;99630.38;5599229;31;34603;-83
2022/01/04 07:40:55;;;;;;;;;;;;;;;5.24;100.00;99632.63;5598489;31;33479;-85
2022/01/04 07:44:00;;;;;;;;;;;;;;;5.45;100.00;99629.22;5597093;31;34958;-83
2022/01/04 07:47:02;;;;;;;;;;;;;;;5.65;100.00;99619.72;5598663;31;34049;-83
2022/01/04 07:50:09;;;;;;;;;;;;;;;5.73;100.00;99617.28;5598113;31;33645;-83
2022/01/04 07:53:11;;;;;;;;;;;;;;;5.74;100.00;99612.87;5597624;31;34074;-84
2022/01/04 07:56:17;;;;;;;;;;;;;;;5.70;100.00;99612.28;5597443;31;34434;-83
2022/01/04 07:59:23;;;;;;;;;;;;;;;5.62;100.00;99604.22;5597649;31;34741;-83
2022/01/04 08:02:26;;;;;;;;;;;;;;;5.59;100.00;99597.44;5598087;31;34234;-84
2022/01/04 08:05:29;;;;;;;;;;;;;;;5.71;100.00;99587.69;5598714;31;33770;-84
2022/01/04 08:08:31;;;;;;;;;;;;;;;5.87;100.00;99585.47;5599594;31;33795;-84
2022/01/04 08:11:36;;;;;;;;;;;;;;;6.10;100.00;99581.87;5601602;31;33632;-84
2022/01/04 08:14:38;;;;;;;;;;;;;;;6.41;100.00;99569.59;5600401;31;33518;-84
2022/01/04 08:17:47;;;;;;;;;;;;;;;6.62;100.00;99555.56;5600977;31;34055;-84
2022/01/04 08:20:55;;;;;;;;;;;;;;;6.83;100.00;99558.13;5601822;31;34421;-84
2022/01/04 08:23:58;;;;;;;;;;;;;;;6.78;100.00;99540.12;5601574;31;34249;-84
2022/01/04 08:27:01;;;;;;;;;;;;;;;6.93;100.00;99547.59;5602449;31;33860;-86
2022/01/04 08:30:05;;;;;;;;;;;;;;;6.97;100.00;99553.44;5600913;31;33760;-84
2022/01/04 08:33:11;;;;;;;;;;;;;;;6.99;100.00;99541.81;5601016;31;35014;-84
2022/01/04 08:36:15;;;;;;;;;;;;;;;6.94;100.00;99536.13;5600515;31;33606;-84
2022/01/04 08:39:17;;;;;;;;;;;;;;;6.82;100.00;99545.09;5601600;31;32948;-84
2022/01/04 08:42:22;;;;;;;;;;;;;;;6.83;100.00;99533.59;5601899;31;33998;-85
2022/01/04 08:45:24;;;;;;;;;;;;;;;6.82;100.00;99534.56;5601955;31;33710;-85
2022/01/04 08:48:27;;;;;;;;;;;;;;;6.99;100.00;99552.31;5601793;31;34466;-84
2022/01/04 08:51:35;;;;;;;;;;;;;;;7.07;100.00;99549.84;5603525;31;34113;-85
2022/01/04 08:54:38;;;;;;;;;;;;;;;7.21;100.00;99529.34;5602595;31;34953;-85
2022/01/04 08:57:43;;;;;;;;;;;;;;;7.39;100.00;99527.69;5604047;31;34302;-85
2022/01/04 09:00:51;;;;;;;;;;;;;;;7.58;100.00;99526.00;5601144;31;34368;-84
2022/01/04 09:03:57;;;;;;;;;;;;;;;7.57;100.00;99535.69;5601605;31;33826;-85
2022/01/04 09:07:00;;;;;;;;;;;;;;;7.70;100.00;99519.63;5602804;31;34422;-84
2022/01/04 09:10:06;;;;;;;;;;;;;;;7.61;100.00;99515.19;5600800;31;34242;-84
2022/01/04 09:13:15;;;;;;;;;;;;;;;7.56;100.00;99510.34;5601407;31;34432;-85
2022/01/04 09:19:20;;;;;;;;;;;;;;;7.26;100.00;99506.94;5599420;31;34896;-85
2022/01/04 09:22:23;;;;;;;;;;;;;;;7.27;100.00;99513.00;5601910;31;33517;-85
2022/01/04 09:25:30;;;;;;;;;;;;;;;7.30;100.00;99509.28;5600334;31;33944;-83
2022/01/04 09:28:32;;;;;;;;;;;;;;;7.22;100.00;99504.72;5597453;31;34778;-83
2022/01/04 09:31:35;;;;;;;;;;;;;;;7.23;100.00;99501.94;5597026;31;33781;-83
2022/01/04 09:34:43;;;;;;;;;;;;;;;7.24;100.00;99490.44;5596759;31;34663;-83
2022/01/04 09:37:46;;;;;;;;;;;;;;;7.10;100.00;99475.91;5596208;31;33850;-83
2022/01/04 09:40:50;;;;;;;;;;;;;;;7.18;100.00;99477.88;5597295;31;34028;-83
2022/01/04 09:43:56;;;;;;;;;;;;;;;7.20;100.00;99470.66;5596856;31;33288;-83
2022/01/04 09:47:02;;;;;;;;;;;;;;;7.45;100.00;99457.88;5597068;31;33858;-83
2022/01/04 09:50:10;;;;;;;;;;;;;;;7.64;100.00;99457.00;5598188;31;33962;-85
2022/01/04 09:53:21;;;;;;;;;;;;;;;7.65;100.00;99452.56;5597905;31;34860;-83
2022/01/04 09:56:24;;;;;;;;;;;;;;;7.76;100.00;99443.66;5597109;31;33538;-85
2022/01/04 09:59:27;;;;;;;;;;;;;;;8.07;100.00;99419.66;5597192;31;33820;-83
2022/01/04 10:02:32;;;;;;;;;;;;;;;8.27;100.00;99410.72;5596712;31;33742;-83
2022/01/04 10:05:35;;;;;;;;;;;;;;;8.37;100.00;99396.63;5597906;31;33980;-84
2022/01/04 10:08:56;;;;;;;;;;;;;;;8.17;100.00;99388.84;5598002;31;33689;-84
2022/01/04 10:12:00;;;;;;;;;;;;;;;8.33;100.00;99391.66;5597260;31;34426;-84
2022/01/04 10:15:02;;;;;;;;;;;;;;;8.39;100.00;99384.16;5596943;31;33966;-84
2022/01/04 10:18:14;;;;;;;;;;;;;;;8.41;100.00;99371.62;5596261;31;33832;-83
2022/01/04 10:21:16;;;;;;;;;;;;;;;8.73;99.20;99372.91;5596124;31;33824;-84
2022/01/04 10:24:19;;;;;;;;;;;;;;;8.84;98.38;99383.22;5596770;31;33698;-83
2022/01/04 10:27:21;;;;;;;;;;;;;;;8.90;99.31;99390.56;5596221;31;34012;-83
2022/01/04 10:30:43;;;;;;;;;;;;;;;9.00;98.29;99389.63;5597039;31;33783;-84
2022/01/04 10:33:51;;;;;;;;;;;;;;;8.97;98.63;99390.78;5594853;31;33829;-84
2022/01/04 10:37:01;;;;;;;;;;;;;;;8.95;97.90;99388.25;5595413;31;33651;-83
2022/01/04 10:40:04;;;;;;;;;;;;;;;9.20;98.76;99372.62;5595768;31;33979;-83
2022/01/04 10:43:16;;;;;;;;;;;;;;;9.06;97.10;99357.38;5596332;31;34197;-84
2022/01/04 10:46:29;;;;;;;;;;;;;;;9.11;97.56;99349.81;5596152;31;33885;-84
2022/01/04 10:49:40;;;;;;;;;;;;;;;9.19;97.06;99355.13;5595878;31;33677;-84
2022/01/04 10:52:48;;;;;;;;;;;;;;;9.39;96.92;99347.00;5596851;31;34151;-83
2022/01/04 10:55:55;;;;;;;;;;;;;;;9.56;96.24;99348.72;5597102;31;33852;-83
2022/01/04 10:59:02;;;;;;;;;;;;;;;9.68;95.51;99346.63;5596274;31;33687;-83
2022/01/04 11:02:05;;;;;;;;;;;;;;;9.74;96.73;99334.59;5596829;31;34506;-84
2022/01/04 11:05:11;;;;;;;;;;;;;;;9.62;96.41;99326.16;5595638;31;34884;-83
2022/01/04 11:08:17;;;;;;;;;;;;;;;9.78;96.33;99308.72;5595908;31;33624;-83
2022/01/04 11:11:20;;;;;;;;;;;;;;;9.66;96.65;99313.44;5595369;31;34206;-84
2022/01/04 11:14:24;;;;;;;;;;;;;;;9.78;96.84;99306.87;5596915;31;34681;-84
2022/01/04 11:17:27;;;;;;;;;;;;;;;9.73;97.60;99301.28;5596678;31;34621;-84
2022/01/04 11:20:29;;;;;;;;;;;;;;;9.72;98.21;99294.34;5597678;31;34926;-84
2022/01/04 11:23:35;;;;;;;;;;;;;;;9.67;98.37;99302.75;5599098;31;34499;-84
2022/01/04 11:26:41;;;;;;;;;;;;;;;9.67;98.29;99281.62;5597019;31;34796;-84
2022/01/04 11:29:45;;;;;;;;;;;;;;;9.67;98.64;99265.78;5596400;31;33721;-84
2022/01/04 11:32:50;;;;;;;;;;;;;;;9.81;98.21;99272.22;5596362;31;34141;-84
2022/01/04 11:35:56;;;;;;;;;;;;;;;9.74;98.84;99255.34;5596804;31;33587;-84
2022/01/04 11:39:00;;;;;;;;;;;;;;;9.53;100.00;99259.28;5597068;31;33780;-84
2022/01/04 11:42:05;;;;;;;;;;;;;;;9.54;100.00;99255.66;5596745;31;34106;-84
2022/01/04 11:45:09;;;;;;;;;;;;;;;9.60;100.00;99256.81;5597775;31;34975;-84
2022/01/04 11:48:31;;;;;;;;;;;;;;;9.71;100.00;99234.56;5598685;31;34507;-84
2022/01/04 11:51:36;;;;;;;;;;;;;;;9.73;100.00;99227.31;5599316;31;34261;-84
2022/01/04 11:54:40;;;;;;;;;;;;;;;9.70;100.00;99238.19;5600464;31;33716;-84
2022/01/04 11:57:42;;;;;;;;;;;;;;;9.76;100.00;99242.81;5598465;31;34400;-84
2022/01/04 12:00:54;;;;;;;;;;;;;;;9.77;100.00;99226.00;5598003;31;33662;-84
2022/01/04 12:04:00;;;;;;;;;;;;;;;9.76;100.00;99245.47;5602764;31;34037;-84
2022/01/04 12:07:02;;;;;;;;;;;;;;;9.83;100.00;99230.63;5599502;31;34032;-84
2022/01/04 12:10:23;;;;;;;;;;;;;;;9.92;99.35;99231.47;5599551;31;33745;-84
2022/01/04 12:13:45;;;;;;;;;;;;;;;9.78;99.94;99238.22;5598702;31;33818;-83
2022/01/04 12:16:59;;;;;;;;;;;;;;;9.85;99.75;99226.00;5597622;31;34486;-83
2022/01/04 12:20:01;;;;;;;;;;;;;;;9.98;98.61;99236.09;5597312;31;33849;-83
2022/01/04 12:23:22;;;;;;;;;;;;;;;9.87;100.00;99229.31;5598922;31;34573;-83
2022/01/04 12:26:26;;;;;;;;;;;;;;;9.77;99.57;99226.00;5598060;31;34348;-84
2022/01/04 12:29:32;;;;;;;;;;;;;;;10.00;99.09;99228.84;5598443;31;33925;-83
2022/01/04 12:32:37;;;;;;;;;;;;;;;9.81;99.87;99219.41;5598017;31;34344;-83
2022/01/04 12:35:48;;;;;;;;;;;;;;;9.87;99.90;99218.75;5598275;31;34896;-84
2022/01/04 12:38:51;;;;;;;;;;;;;;;9.99;99.92;99206.06;5599999;31;33760;-83
2022/01/04 12:41:56;;;;;;;;;;;;;;;9.88;99.48;99193.97;5599151;31;34654;-83
2022/01/04 12:44:59;;;;;;;;;;;;;;;9.84;100.00;99186.53;5599296;31;34657;-83
2022/01/04 12:48:04;;;;;;;;;;;;;;;9.94;100.00;99175.84;5598191;31;33646;-83
2022/01/04 12:51:26;;;;;;;;;;;;;;;10.08;99.60;99180.44;5597796;31;33931;-83
2022/01/04 12:54:30;;;;;;;;;;;;;;;10.18;98.89;99186.41;5597596;31;33980;-83
2022/01/04 12:57:33;;;;;;;;;;;;;;;10.20;98.43;99186.22;5598827;31;34116;-84
2022/01/04 13:00:35;;;;;;;;;;;;;;;10.30;97.99;99175.50;5597646;31;33757;-83
2022/01/04 13:03:44;;;;;;;;;;;;;;;10.41;97.59;99161.97;5597653;31;33652;-83
2022/01/04 13:06:50;;;;;;;;;;;;;;;10.59;96.10;99131.81;5598830;31;33348;-83
2022/01/04 13:09:57;;;;;;;;;;;;;;;10.62;95.71;99126.22;5598489;31;34086;-83
2022/01/04 13:13:03;;;;;;;;;;;;;;;10.60;95.50;99130.84;5598234;31;34345;-83
2022/01/04 13:16:25;;;;;;;;;;;;;;;10.35;97.17;99136.16;5598372;31;35949;-83
2022/01/04 13:19:28;;;;;;;;;;;;;;;10.42;96.76;99116.00;5598882;31;33827;-83
2022/01/04 13:22:31;;;;;;;;;;;;;;;10.44;96.60;99102.63;5598713;31;34411;-83
2022/01/04 13:25:36;;;;;;;;;;;;;;;10.43;96.80;99111.53;5598533;31;34254;-83
2022/01/04 13:28:40;;;;;;;;;;;;;;;10.26;97.14;99108.91;5598162;31;33792;-83
2022/01/04 13:31:43;;;;;;;;;;;;;;;10.28;97.52;99104.28;5598362;31;33326;-83
2022/01/04 13:35:03;;;;;;;;;;;;;;;10.28;97.19;99111.38;5598794;31;34441;-83
2022/01/04 13:38:19;;;;;;;;;;;;;;;10.31;96.46;99118.97;5598135;31;34117;-83
2022/01/04 13:41:32;;;;;;;;;;;;;;;10.42;96.05;99110.69;5597998;31;33888;-84
2022/01/04 13:44:52;;;;;;;;;;;;;;;10.54;95.59;99118.28;5597865;31;34026;-83
2022/01/04 13:47:59;;;;;;;;;;;;;;;10.48;96.61;99102.09;5597596;31;33924;-83
2022/01/04 13:51:11;;;;;;;;;;;;;;;10.46;96.66;99090.88;5599792;31;33866;-84
2022/01/04 13:54:18;;;;;;;;;;;;;;;10.42;96.86;99113.34;5600590;31;34204;-84
2022/01/04 13:57:20;;;;;;;;;;;;;;;10.43;96.97;99122.13;5598423;31;33891;-83
2022/01/04 14:00:30;;;;;;;;;;;;;;;10.41;97.03;99108.25;5598860;31;33484;-84
2022/01/04 14:03:33;;;;;;;;;;;;;;;10.28;97.67;99095.53;5598873;31;33757;-83
2022/01/04 14:06:36;;;;;;;;;;;;;;;10.31;97.42;99092.53;5598955;31;34163;-84
2022/01/04 14:09:44;;;;;;;;;;;;;;;10.27;97.23;99086.75;5599452;31;33793;-84
2022/01/04 14:12:47;;;;;;;;;;;;;;;10.22;98.46;99072.41;5598516;31;33435;-83
2022/01/04 14:16:06;;;;;;;;;;;;;;;10.10;99.32;99078.03;5598637;31;33648;-86
2022/01/04 14:19:08;;;;;;;;;;;;;;;10.09;99.35;99073.75;5599505;31;33636;-83
2022/01/04 14:22:16;;;;;;;;;;;;;;;9.92;100.00;99082.69;5597715;31;33136;-83
2022/01/04 14:25:22;;;;;;;;;;;;;;;9.91;100.00;99075.75;5598883;31;33844;-84
2022/01/04 14:28:25;;;;;;;;;;;;;;;9.91;100.00;99075.75;5598895;31;33952;-84
2022/01/04 14:31:27;;;;;;;;;;;;;;;9.84;100.00;99073.81;5599288;31;33962;-84
2022/01/04 14:34:30;;;;;;;;;;;;;;;9.83;100.00;99064.22;5599367;31;34330;-84
2022/01/04 14:37:33;;;;;;;;;;;;;;;9.79;100.00;99065.53;5598957;31;33822;-84
2022/01/04 14:40:37;;;;;;;;;;;;;;;9.76;100.00;99057.13;5598656;31;33515;-84
2022/01/04 14:43:39;;;;;;;;;;;;;;;9.75;100.00;99051.00;5598303;31;34419;-84
2022/01/04 14:46:44;;;;;;;;;;;;;;;9.74;100.00;99039.63;5598419;31;34006;-84
2022/01/04 14:49:58;;;;;;;;;;;;;;;9.76;100.00;99036.00;5598569;31;34725;-84
2022/01/04 14:53:05;;;;;;;;;;;;;;;9.74;100.00;99059.91;5598499;31;34464;-84
2022/01/04 14:56:08;;;;;;;;;;;;;;;9.86;99.93;99063.87;5595881;31;33774;-83
2022/01/04 14:59:11;;;;;;;;;;;;;;;9.93;98.73;99063.22;5597563;31;33364;-84
2022/01/04 15:02:16;;;;;;;;;;;;;;;9.93;98.22;99079.06;5596513;31;34229;-84
2022/01/04 15:05:25;;;;;;;;;;;;;;;9.92;98.38;99072.13;5598718;31;34751;-85
2022/01/04 15:08:28;;;;;;;;;;;;;;;9.82;99.81;99094.28;5599879;31;34932;-84
2022/01/04 15:11:31;;;;;;;;;;;;;;;9.91;98.22;99103.00;5600749;31;33812;-85
2022/01/04 15:14:37;;;;;;;;;;;;;;;9.85;99.76;99099.19;5600935;31;33376;-85
2022/01/04 15:17:40;;;;;;;;;;;;;;;9.89;99.74;99097.88;5605368;31;34848;-85
2022/01/04 15:20:43;;;;;;;;;;;;;;;9.83;100.00;99098.56;5602834;31;33767;-85
2022/01/04 15:23:46;;;;;;;;;;;;;;;9.77;100.00;99093.94;5601261;31;33822;-84
2022/01/04 15:26:49;;;;;;;;;;;;;;;9.72;100.00;99080.41;5601002;31;33952;-84
2022/01/04 15:29:52;;;;;;;;;;;;;;;9.78;100.00;99073.63;5601615;31;34098;-84
2022/01/04 15:32:57;;;;;;;;;;;;;;;9.77;100.00;99054.31;5588148;31;33869;-84
2022/01/04 15:36:00;;;;;;;;;;;;;;;9.79;100.00;99036.50;5604998;31;33771;-85
2022/01/04 15:39:03;;;;;;;;;;;;;;;9.73;100.00;99037.16;5603685;31;34898;-85
2022/01/04 15:42:06;;;;;;;;;;;;;;;9.77;100.00;99027.91;5602479;31;34023;-85
2022/01/04 15:45:14;;;;;;;;;;;;;;;9.83;99.39;99021.12;5604976;31;34453;-85
2022/01/04 15:48:16;;;;;;;;;;;;;;;9.93;98.96;99013.03;5603766;31;34030;-85
2022/01/04 15:51:23;;;;;;;;;;;;;;;9.80;99.76;99014.38;5603249;31;33920;-85
2022/01/04 15:54:27;;;;;;;;;;;;;;;9.78;100.00;98997.84;5604067;31;33802;-85
2022/01/04 15:57:29;;;;;;;;;;;;;;;9.73;99.87;98990.44;5604058;31;34840;-85
2022/01/04 16:00:36;;;;;;;;;;;;;;;9.71;99.92;99002.16;5603984;31;33314;-86
2022/01/04 16:03:38;;;;;;;;;;;;;;;9.63;100.00;99004.81;5603935;31;34560;-85
2022/01/04 16:06:41;;;;;;;;;;;;;;;9.49;100.00;98986.03;5602524;31;32547;-85
2022/01/04 16:09:46;;;;;;;;;;;;;;;9.43;100.00;98991.94;5602528;31;33959;-85